Time;durP1;ratioP1;P1;durP2;ratioP2;P2;SDS_P1;SDS_P2;PMS_P1;PMS_P2;Temp;Humidity;BMP_temperature;BMP_pressure;BME280_temperature;BME280_humidity;BME280_pressure;Samples;Min_cycle;Max_cycle;Signal;HPM_P1;HPM_P2
2023/09/04 00:02:13;;;;;;;9.77;8.77;;;;;;;;;;4956430;28;20128;-84
2023/09/04 00:04:40;;;;;;;13.65;9.70;;;;;;;;;;4956762;28;20051;-85
2023/09/04 00:07:07;;;;;;;13.25;9.30;;;;;;;;;;4956354;28;20106;-85
2023/09/04 00:09:35;;;;;;;10.30;8.43;;;;;;;;;;4956550;28;20432;-85
2023/09/04 00:12:02;;;;;;;9.23;8.38;;;;;;;;;;4956519;28;20093;-85
2023/09/04 00:14:29;;;;;;;8.43;7.63;;;;;;;;;;4956530;28;20086;-84
2023/09/04 00:16:56;;;;;;;9.57;8.15;;;;;;;;;;4956396;28;20097;-84
2023/09/04 00:19:24;;;;;;;9.55;8.43;;;;;;;;;;4973554;28;20093;-85
2023/09/04 00:21:51;;;;;;;11.23;8.45;;;;;;;;;;4973568;28;20055;-84
2023/09/04 00:24:20;;;;;;;13.27;7.70;;;;;;;;;;4956432;28;20078;-85
2023/09/04 00:26:47;;;;;;;11.88;8.02;;;;;;;;;;4973249;28;20073;-85
2023/09/04 00:29:15;;;;;;;11.70;8.20;;;;;;;;;;4956277;28;20043;-85
2023/09/04 00:31:42;;;;;;;7.85;7.20;;;;;;;;;;4956668;28;20087;-85
2023/09/04 00:34:09;;;;;;;10.95;7.97;;;;;;;;;;4956525;28;20089;-85
2023/09/04 00:36:36;;;;;;;9.63;7.85;;;;;;;;;;4955923;28;20113;-85
2023/09/04 00:39:04;;;;;;;10.35;7.90;;;;;;;;;;4956064;28;20054;-85
2023/09/04 00:41:31;;;;;;;9.00;7.80;;;;;;;;;;4973972;28;20054;-85
2023/09/04 00:43:58;;;;;;;9.30;7.82;;;;;;;;;;4959579;28;20524;-84
2023/09/04 00:46:26;;;;;;;13.60;8.30;;;;;;;;;;4974738;28;20054;-84
2023/09/04 00:48:54;;;;;;;8.65;7.65;;;;;;;;;;4959673;28;20047;-84
2023/09/04 00:51:21;;;;;;;9.05;8.25;;;;;;;;;;4959442;28;20109;-85
2023/09/04 00:53:49;;;;;;;10.20;8.50;;;;;;;;;;4959780;28;20070;-84
2023/09/04 00:56:16;;;;;;;11.63;8.20;;;;;;;;;;4959216;28;20058;-85
2023/09/04 00:58:44;;;;;;;13.50;8.60;;;;;;;;;;4976464;28;20051;-85
2023/09/04 01:01:11;;;;;;;8.90;8.00;;;;;;;;;;4959340;28;20051;-85
2023/09/04 01:03:39;;;;;;;10.32;7.75;;;;;;;;;;4976225;28;20105;-84
2023/09/04 01:06:07;;;;;;;11.65;7.72;;;;;;;;;;4959320;28;20046;-84
2023/09/04 01:08:36;;;;;;;8.63;7.82;;;;;;;;;;4959596;28;20142;-85
2023/09/04 01:11:03;;;;;;;11.15;8.48;;;;;;;;;;4959219;28;20050;-85
2023/09/04 01:13:37;;;;;;;9.32;8.43;;;;;;;;;;4959331;28;20440;-84
2023/09/04 01:16:04;;;;;;;;;;;;;;;;;;4959103;28;20129;-85
2023/09/04 01:18:31;;;;;;;12.45;9.55;;;;;;;;;;4959013;28;20362;-84
2023/09/04 01:21:05;;;;;;;13.05;9.20;;;;;;;;;;4959179;28;20141;-85
2023/09/04 01:23:33;;;;;;;14.30;8.75;;;;;;;;;;4959149;28;20463;-85
2023/09/04 01:26:07;;;;;;;10.65;9.55;;;;;;;;;;4958883;28;20053;-85
2023/09/04 01:28:41;;;;;;;9.40;8.60;;;;;;;;;;4976165;28;20066;-85
2023/09/04 01:31:29;;;;;;;12.75;9.70;;;;;;;;;;4958982;28;20055;-85
2023/09/04 01:33:57;;;;;;;9.98;9.05;;;;;;;;;;4975678;28;20050;-84
2023/09/04 01:36:27;;;;;;;8.82;7.82;;;;;;;;;;4975605;28;20078;-85
2023/09/04 01:38:54;;;;;;;8.80;7.80;;;;;;;;;;4958541;28;20074;-85
2023/09/04 01:41:22;;;;;;;11.65;8.90;;;;;;;;;;4975601;28;20412;-85
2023/09/04 01:43:50;;;;;;;9.70;8.13;;;;;;;;;;4958810;28;20105;-84
2023/09/04 01:46:17;;;;;;;12.25;8.13;;;;;;;;;;4958908;28;20053;-85
2023/09/04 01:48:44;;;;;;;11.52;9.13;;;;;;;;;;4958969;28;20051;-85
2023/09/04 01:51:12;;;;;;;10.25;8.77;;;;;;;;;;4958624;28;20047;-84
2023/09/04 01:53:39;;;;;;;8.13;7.22;;;;;;;;;;4958608;28;20499;-85
2023/09/04 01:56:06;;;;;;;8.55;7.43;;;;;;;;;;4975652;28;20082;-85
2023/09/04 01:58:33;;;;;;;8.85;7.95;;;;;;;;;;4958831;28;20047;-85
2023/09/04 02:01:01;;;;;;;8.38;7.28;;;;;;;;;;4975624;28;20492;-85
2023/09/04 02:03:31;;;;;;;7.82;7.18;;;;;;;;;;4959018;28;20047;-85
2023/09/04 02:05:58;;;;;;;9.25;7.57;;;;;;;;;;4975075;28;20423;-85
2023/09/04 02:08:25;;;;;;;11.15;7.43;;;;;;;;;;4958416;28;20062;-84
2023/09/04 02:10:54;;;;;;;8.38;7.57;;;;;;;;;;4994312;28;20078;-84
2023/09/04 02:13:24;;;;;;;9.98;7.80;;;;;;;;;;4977890;28;20054;-85
2023/09/04 02:15:51;;;;;;;8.50;7.75;;;;;;;;;;4977851;28;20105;-84
2023/09/04 02:18:18;;;;;;;10.93;8.07;;;;;;;;;;4977611;28;20073;-85
2023/09/04 02:20:49;;;;;;;10.55;9.05;;;;;;;;;;4977455;28;20053;-85
2023/09/04 02:23:18;;;;;;;11.30;8.80;;;;;;;;;;4977809;28;20137;-85
2023/09/04 02:25:49;;;;;;;8.98;8.07;;;;;;;;;;4977474;28;20050;-85
2023/09/04 02:28:16;;;;;;;9.27;8.20;;;;;;;;;;4977719;28;20046;-85
2023/09/04 02:30:43;;;;;;;9.77;8.10;;;;;;;;;;4977609;28;20088;-85
2023/09/04 02:33:11;;;;;;;8.85;8.02;;;;;;;;;;4977324;28;20399;-85
2023/09/04 02:35:38;;;;;;;8.18;7.45;;;;;;;;;;4977297;28;20100;-84
2023/09/04 02:38:06;;;;;;;9.25;8.32;;;;;;;;;;4977372;28;20058;-85
2023/09/04 02:40:33;;;;;;;8.52;7.50;;;;;;;;;;4977406;28;20046;-85
2023/09/04 02:43:00;;;;;;;8.32;7.63;;;;;;;;;;4977001;28;20054;-84
2023/09/04 02:45:27;;;;;;;8.25;7.50;;;;;;;;;;4994397;28;20050;-85
2023/09/04 02:47:55;;;;;;;10.82;8.13;;;;;;;;;;4994340;28;20097;-85
2023/09/04 02:50:23;;;;;;;9.45;8.27;;;;;;;;;;4994403;28;20078;-85
2023/09/04 02:52:51;;;;;;;11.65;8.38;;;;;;;;;;4977230;28;20178;-85
2023/09/04 02:55:18;;;;;;;15.35;8.15;;;;;;;;;;4977161;28;20124;-85
2023/09/04 02:57:45;;;;;;;9.30;8.27;;;;;;;;;;4994243;28;20054;-85
2023/09/04 03:00:13;;;;;;;12.32;8.50;;;;;;;;;;4976805;28;20051;-85
2023/09/04 03:02:40;;;;;;;10.32;8.95;;;;;;;;;;4977058;28;20109;-85
2023/09/04 03:05:08;;;;;;;9.30;8.40;;;;;;;;;;4993573;28;20050;-85
2023/09/04 03:07:35;;;;;;;9.77;8.65;;;;;;;;;;4976579;28;20050;-85
2023/09/04 03:10:03;;;;;;;13.48;8.30;;;;;;;;;;4976699;28;20108;-85
2023/09/04 03:12:31;;;;;;;8.88;8.05;;;;;;;;;;4976868;28;20046;-84
2023/09/04 03:15:05;;;;;;;9.68;8.27;;;;;;;;;;4994028;28;20047;-85
2023/09/04 03:17:33;;;;;;;9.73;8.52;;;;;;;;;;4976641;28;20101;-85
2023/09/04 03:20:04;;;;;;;15.15;8.90;;;;;;;;;;4976429;28;20046;-85
2023/09/04 03:22:31;;;;;;;11.75;8.48;;;;;;;;;;4993975;28;20054;-85
2023/09/04 03:24:59;;;;;;;12.65;9.13;;;;;;;;;;4976744;28;20093;-85
2023/09/04 03:27:27;;;;;;;11.02;9.65;;;;;;;;;;4976457;28;20585;-86
2023/09/04 03:29:54;;;;;;;20.13;9.73;;;;;;;;;;4993818;28;20054;-85
2023/09/04 03:32:21;;;;;;;14.93;8.70;;;;;;;;;;4976625;28;20054;-85
2023/09/04 03:34:48;;;;;;;11.77;9.40;;;;;;;;;;4976703;28;20054;-85
2023/09/04 03:37:16;;;;;;;10.57;8.75;;;;;;;;;;4976300;28;20050;-85
2023/09/04 03:39:43;;;;;;;10.82;8.02;;;;;;;;;;4993757;28;20085;-86
2023/09/04 03:42:13;;;;;;;13.15;9.80;;;;;;;;;;4976622;28;20117;-85
2023/09/04 03:44:40;;;;;;;10.05;9.13;;;;;;;;;;4994017;28;20141;-85
2023/09/04 03:47:07;;;;;;;18.08;8.73;;;;;;;;;;4993868;28;20056;-86
2023/09/04 03:49:35;;;;;;;11.15;9.10;;;;;;;;;;4993809;28;20104;-85
2023/09/04 03:52:02;;;;;;;15.07;9.32;;;;;;;;;;4994122;28;20057;-85
2023/09/04 03:54:29;;;;;;;14.82;9.55;;;;;;;;;;4976473;28;20080;-86
2023/09/04 03:56:57;;;;;;;10.32;8.07;;;;;;;;;;4993516;28;20050;-85
2023/09/04 03:59:24;;;;;;;12.05;9.68;;;;;;;;;;4976530;28;20487;-85
2023/09/04 04:01:51;;;;;;;9.50;8.27;;;;;;;;;;4976426;28;20054;-85
2023/09/04 04:04:19;;;;;;;9.32;8.27;;;;;;;;;;4976388;28;20046;-85
2023/09/04 04:06:46;;;;;;;9.45;8.48;;;;;;;;;;4976400;28;20046;-85
2023/09/04 04:09:15;;;;;;;8.93;8.13;;;;;;;;;;4976319;28;20097;-86
2023/09/04 04:11:44;;;;;;;9.55;8.43;;;;;;;;;;4993707;28;20137;-85
2023/09/04 04:14:11;;;;;;;9.32;7.30;;;;;;;;;;4976000;28;20113;-85
2023/09/04 04:16:39;;;;;;;18.50;8.32;;;;;;;;;;4976883;28;20050;-85
2023/09/04 04:19:06;;;;;;;9.55;8.18;;;;;;;;;;4980079;28;20050;-85
2023/09/04 04:21:33;;;;;;;10.35;7.30;;;;;;;;;;4979735;28;20090;-85
2023/09/04 04:24:03;;;;;;;13.18;7.93;;;;;;;;;;4979916;28;20109;-86
2023/09/04 04:26:30;;;;;;;8.45;7.75;;;;;;;;;;4997030;28;20046;-86
2023/09/04 04:28:58;;;;;;;11.50;7.88;;;;;;;;;;4996814;28;20058;-85
2023/09/04 04:31:26;;;;;;;12.57;7.72;;;;;;;;;;4979673;28;20078;-85
2023/09/04 04:33:53;;;;;;;11.02;7.97;;;;;;;;;;4979737;28;20409;-85
2023/09/04 04:36:20;;;;;;;8.45;7.65;;;;;;;;;;4979315;28;20046;-85
2023/09/04 04:38:47;;;;;;;12.35;8.10;;;;;;;;;;4979615;28;20046;-84
2023/09/04 04:41:14;;;;;;;11.32;8.13;;;;;;;;;;4979173;28;20105;-85
2023/09/04 04:43:42;;;;;;;12.60;8.50;;;;;;;;;;4996441;28;20063;-85
2023/09/04 04:46:12;;;;;;;13.38;10.30;;;;;;;;;;4979275;28;20046;-85
2023/09/04 04:48:40;;;;;;;11.80;9.63;;;;;;;;;;4996725;28;20130;-84
2023/09/04 04:51:07;;;;;;;10.85;8.90;;;;;;;;;;4979164;28;20458;-86
2023/09/04 04:53:35;;;;;;;13.70;10.60;;;;;;;;;;4979306;28;20561;-85
2023/09/04 04:56:03;;;;;;;15.38;11.55;;;;;;;;;;4979250;28;20054;-86
2023/09/04 04:58:30;;;;;;;16.02;10.90;;;;;;;;;;4978999;28;20105;-85
2023/09/04 05:00:58;;;;;;;12.98;8.63;;;;;;;;;;4996046;28;20050;-84
2023/09/04 05:03:25;;;;;;;13.95;11.38;;;;;;;;;;4996084;28;20046;-85
2023/09/04 05:05:53;;;;;;;13.25;9.07;;;;;;;;;;4996465;28;20050;-85
2023/09/04 05:08:20;;;;;;;13.80;11.27;;;;;;;;;;4979109;28;20101;-85
2023/09/04 05:10:57;;;;;;;10.30;9.25;;;;;;;;;;4996005;28;20154;-85
2023/09/04 05:13:24;;;;;;;16.55;11.98;;;;;;;;;;4996110;28;20081;-86
2023/09/04 05:15:52;;;;;;;13.45;9.68;;;;;;;;;;4995627;28;20097;-85
2023/09/04 05:18:19;;;;;;;12.40;9.90;;;;;;;;;;4996004;28;20050;-86
2023/09/04 05:20:46;;;;;;;16.10;10.80;;;;;;;;;;4996158;28;20057;-85
2023/09/04 05:23:13;;;;;;;10.15;8.60;;;;;;;;;;4995791;28;20594;-85
2023/09/04 05:25:48;;;;;;;16.33;10.27;;;;;;;;;;4978488;28;20506;-85
2023/09/04 05:28:15;;;;;;;15.20;11.18;;;;;;;;;;4995149;28;20498;-84
2023/09/04 05:30:43;;;;;;;10.88;9.00;;;;;;;;;;4978640;28;20109;-85
2023/09/04 05:33:10;;;;;;;14.07;12.63;;;;;;;;;;4978210;28;20046;-85
2023/09/04 05:35:37;;;;;;;19.80;14.73;;;;;;;;;;4978207;28;20046;-85
2023/09/04 05:38:05;;;;;;;17.40;14.55;;;;;;;;;;4978183;28;20430;-85
2023/09/04 05:40:32;;;;;;;15.07;13.45;;;;;;;;;;4995382;28;20100;-85
2023/09/04 05:42:59;;;;;;;15.50;12.82;;;;;;;;;;4977982;28;20481;-86
2023/09/04 05:45:27;;;;;;;14.25;12.05;;;;;;;;;;4995455;28;20061;-84
2023/09/04 05:47:54;;;;;;;13.05;11.95;;;;;;;;;;4978058;28;20047;-84
2023/09/04 05:50:21;;;;;;;17.85;15.60;;;;;;;;;;4977940;28;20419;-85
2023/09/04 05:52:48;;;;;;;15.70;13.65;;;;;;;;;;4978033;28;20466;-84
2023/09/04 05:55:16;;;;;;;13.75;12.38;;;;;;;;;;4995039;28;20077;-84
2023/09/04 05:57:43;;;;;;;12.82;11.18;;;;;;;;;;4977854;28;20078;-84
2023/09/04 06:00:11;;;;;;;8.68;7.88;;;;;;;;;;4977736;28;20097;-84
2023/09/04 06:02:39;;;;;;;9.07;6.53;;;;;;;;;;4994822;28;20113;-84
2023/09/04 06:05:06;;;;;;;5.95;4.25;;;;;;;;;;4994469;28;20410;-83
2023/09/04 06:07:34;;;;;;;10.73;3.65;;;;;;;;;;4994110;28;20050;-84
2023/09/04 06:10:03;;;;;;;3.03;2.67;;;;;;;;;;4994421;28;20133;-85
2023/09/04 06:12:31;;;;;;;4.55;2.90;;;;;;;;;;4976590;28;20054;-84
2023/09/04 06:15:01;;;;;;;6.53;3.45;;;;;;;;;;4969237;28;20130;-84
2023/09/04 06:17:28;;;;;;;4.13;3.10;;;;;;;;;;4953964;28;20047;-83
2023/09/04 06:19:55;;;;;;;9.95;3.42;;;;;;;;;;4973278;28;20043;-84
2023/09/04 06:22:23;;;;;;;3.58;3.30;;;;;;;;;;4955771;28;20450;-83
2023/09/04 06:24:50;;;;;;;4.68;3.13;;;;;;;;;;4972888;28;20047;-84
2023/09/04 06:27:17;;;;;;;3.83;2.83;;;;;;;;;;4954507;28;20062;-83
2023/09/04 06:29:44;;;;;;;15.82;5.32;;;;;;;;;;4973080;28;20046;-84
2023/09/04 06:32:14;;;;;;;14.65;3.67;;;;;;;;;;4974574;28;20085;-84
2023/09/04 06:34:41;;;;;;;3.33;3.00;;;;;;;;;;4957402;28;20081;-84
2023/09/04 06:37:09;;;;;;;3.67;2.90;;;;;;;;;;4957046;28;20397;-83
2023/09/04 06:39:36;;;;;;;3.60;2.97;;;;;;;;;;4973868;28;20110;-84
2023/09/04 06:42:03;;;;;;;10.18;4.18;;;;;;;;;;4956870;28;20101;-84
2023/09/04 06:44:32;;;;;;;10.63;3.97;;;;;;;;;;4956889;28;20282;-83
2023/09/04 06:47:00;;;;;;;8.15;4.28;;;;;;;;;;4973704;28;20134;-84
2023/09/04 06:49:30;;;;;;;15.48;4.03;;;;;;;;;;4974351;28;20059;-84
2023/09/04 06:51:57;;;;;;;7.53;3.28;;;;;;;;;;4974284;28;20093;-84
2023/09/04 06:54:24;;;;;;;3.95;3.40;;;;;;;;;;4956962;28;20051;-84
2023/09/04 06:56:52;;;;;;;13.20;4.03;;;;;;;;;;4956870;28;20083;-83
2023/09/04 06:59:19;;;;;;;9.45;3.53;;;;;;;;;;4956657;28;20054;-84
2023/09/04 07:01:46;;;;;;;4.07;2.78;;;;;;;;;;4974156;28;20101;-84
2023/09/04 07:04:13;;;;;;;16.38;4.38;;;;;;;;;;4957003;28;20046;-85
2023/09/04 07:06:41;;;;;;;12.98;3.65;;;;;;;;;;4974049;28;20093;-84
2023/09/04 07:09:08;;;;;;;12.25;4.05;;;;;;;;;;4966130;28;20046;-85
2023/09/04 07:11:35;;;;;;;11.23;3.88;;;;;;;;;;4966758;28;20046;-83
2023/09/04 07:14:03;;;;;;;15.27;3.65;;;;;;;;;;4967121;28;20057;-84
2023/09/04 07:16:37;;;;;;;17.70;3.55;;;;;;;;;;4975869;28;20561;-84
2023/09/04 07:19:16;;;;;;;19.00;3.80;;;;;;;;;;4977483;28;20050;-83
2023/09/04 07:21:43;;;;;;;22.15;3.67;;;;;;;;;;4975855;28;20135;-84
2023/09/04 07:24:10;;;;;;;12.68;3.67;;;;;;;;;;4993077;28;20081;-84
2023/09/04 07:26:38;;;;;;;11.38;3.60;;;;;;;;;;4975934;28;20070;-84
2023/09/04 07:29:05;;;;;;;12.73;3.72;;;;;;;;;;4992946;28;20158;-83
2023/09/04 07:31:32;;;;;;;16.73;3.53;;;;;;;;;;4975839;28;20101;-84
2023/09/04 07:34:00;;;;;;;19.63;3.35;;;;;;;;;;4992832;28;20073;-83
2023/09/04 07:36:27;;;;;;;8.15;2.85;;;;;;;;;;4975585;28;20054;-84
2023/09/04 07:38:55;;;;;;;9.88;2.75;;;;;;;;;;4993167;28;20062;-85
2023/09/04 07:41:22;;;;;;;11.98;2.60;;;;;;;;;;4975875;28;20051;-83
2023/09/04 07:43:49;;;;;;;9.43;2.50;;;;;;;;;;4975562;28;20054;-85
2023/09/04 07:46:17;;;;;;;5.00;2.28;;;;;;;;;;4975778;28;20093;-84
2023/09/04 07:48:44;;;;;;;16.08;3.17;;;;;;;;;;4992976;28;20097;-84
2023/09/04 07:51:11;;;;;;;7.38;2.42;;;;;;;;;;4994955;28;20152;-85
2023/09/04 07:53:58;;;;;;;4.15;2.10;;;;;;;;;;4997144;28;20396;-84
2023/09/04 07:56:25;;;;;;;5.65;2.25;;;;;;;;;;4997584;28;20100;-85
2023/09/04 07:58:52;;;;;;;8.80;2.10;;;;;;;;;;4985678;28;20411;-84
2023/09/04 08:01:20;;;;;;;8.10;2.35;;;;;;;;;;5000415;28;20046;-85
2023/09/04 08:03:47;;;;;;;5.60;1.90;;;;;;;;;;4997648;28;20149;-85
2023/09/04 08:06:14;;;;;;;4.45;1.60;;;;;;;;;;4997044;28;20128;-85
2023/09/04 08:08:42;;;;;;;9.25;2.35;;;;;;;;;;4997094;28;20051;-85
2023/09/04 08:11:09;;;;;;;6.53;1.70;;;;;;;;;;4979417;28;20419;-85
2023/09/04 08:13:36;;;;;;;2.95;1.55;;;;;;;;;;4996624;28;20507;-85
2023/09/04 08:16:03;;;;;;;3.85;1.67;;;;;;;;;;4996495;28;20074;-86
2023/09/04 08:18:31;;;;;;;2.17;1.30;;;;;;;;;;4996646;28;20050;-86
2023/09/04 08:20:59;;;;;;;1.55;1.40;;;;;;;;;;4996647;28;20490;-85
2023/09/04 08:23:26;;;;;;;3.00;1.55;;;;;;;;;;4996794;28;20058;-86
2023/09/04 08:26:03;;;;;;;5.65;1.50;;;;;;;;;;4979169;28;20514;-85
2023/09/04 08:28:31;;;;;;;3.60;1.20;;;;;;;;;;4996518;28;20100;-84
2023/09/04 08:30:58;;;;;;;2.85;1.45;;;;;;;;;;4996627;28;20046;-89
2023/09/04 08:33:25;;;;;;;3.63;1.40;;;;;;;;;;4996392;28;20462;-85
2023/09/04 08:35:52;;;;;;;7.95;1.50;;;;;;;;;;4996437;28;20487;-85
2023/09/04 08:38:20;;;;;;;2.97;1.30;;;;;;;;;;4996417;28;20108;-84
2023/09/04 08:40:47;;;;;;;4.18;1.20;;;;;;;;;;4978952;28;20079;-85
2023/09/04 08:43:18;;;;;;;3.53;1.20;;;;;;;;;;4978624;28;20450;-86
2023/09/04 08:45:45;;;;;;;3.13;1.50;;;;;;;;;;4979020;28;20082;-86
2023/09/04 08:48:13;;;;;;;4.03;1.55;;;;;;;;;;4995804;28;20054;-86
2023/09/04 08:50:42;;;;;;;2.35;1.10;;;;;;;;;;4978875;28;20046;-85
2023/09/04 08:53:10;;;;;;;2.13;0.98;;;;;;;;;;4978717;28;20057;-87
2023/09/04 08:55:37;;;;;;;1.48;1.00;;;;;;;;;;4979186;28;20090;-86
2023/09/04 08:58:05;;;;;;;1.98;0.80;;;;;;;;;;4978236;28;20050;-86
2023/09/04 09:00:33;;;;;;;1.00;1.00;;;;;;;;;;4996285;28;20085;-86
2023/09/04 09:03:01;;;;;;;1.83;1.13;;;;;;;;;;4978255;28;20053;-90
2023/09/04 09:05:29;;;;;;;2.83;0.90;;;;;;;;;;4979428;28;20042;-86
2023/09/04 09:07:57;;;;;;;1.55;1.02;;;;;;;;;;4979200;28;20050;-89
2023/09/04 09:10:24;;;;;;;2.00;0.90;;;;;;;;;;4996386;28;20138;-87
2023/09/04 09:12:51;;;;;;;2.25;1.20;;;;;;;;;;4978982;28;20042;-87
2023/09/04 09:15:19;;;;;;;1.10;0.73;;;;;;;;;;4978824;28;20050;-88
2023/09/04 09:17:50;;;;;;;1.83;0.90;;;;;;;;;;4978889;28;20082;-85
2023/09/04 09:20:33;;;;;;;1.08;0.75;;;;;;;;;;4995764;28;20050;-88
2023/09/04 09:23:02;;;;;;;1.05;0.90;;;;;;;;;;4996010;28;20083;-87
2023/09/04 09:25:29;;;;;;;0.70;0.70;;;;;;;;;;4995967;28;20503;-88
2023/09/04 09:28:01;;;;;;;1.10;0.85;;;;;;;;;;4995871;28;20478;-86
2023/09/04 09:30:40;;;;;;;3.08;0.80;;;;;;;;;;4995813;28;20102;-87
2023/09/04 09:33:09;;;;;;;2.35;0.90;;;;;;;;;;4978412;28;20062;-89
2023/09/04 09:35:40;;;;;;;1.05;0.80;;;;;;;;;;4996029;28;20054;-87
2023/09/04 09:38:07;;;;;;;0.73;0.73;;;;;;;;;;4978527;28;20046;-87
2023/09/04 09:40:35;;;;;;;3.25;1.00;;;;;;;;;;4978456;28;20053;-85
2023/09/04 09:43:02;;;;;;;3.05;0.63;;;;;;;;;;4978023;28;20053;-86
2023/09/04 09:45:33;;;;;;;1.67;0.98;;;;;;;;;;4995187;28;20491;-87
2023/09/04 09:48:07;;;;;;;2.38;1.00;;;;;;;;;;4995345;28;20046;-87
2023/09/04 09:50:38;;;;;;;1.48;0.85;;;;;;;;;;4978514;28;20133;-88
2023/09/04 09:53:06;;;;;;;1.88;0.70;;;;;;;;;;4995702;28;20054;-87
2023/09/04 09:55:34;;;;;;;1.98;0.70;;;;;;;;;;4995411;28;20050;-87
2023/09/04 09:58:01;;;;;;;1.35;0.70;;;;;;;;;;4995034;28;20066;-87
2023/09/04 10:00:29;;;;;;;0.70;0.70;;;;;;;;;;4978279;28;20069;-88
2023/09/04 10:02:57;;;;;;;6.82;1.42;;;;;;;;;;4977754;28;20042;-86
2023/09/04 10:05:25;;;;;;;1.38;0.90;;;;;;;;;;4978147;28;20095;-88
2023/09/04 10:08:00;;;;;;;4.32;1.10;;;;;;;;;;4977943;28;20047;-87
2023/09/04 10:10:27;;;;;;;1.67;0.90;;;;;;;;;;4977741;28;20548;-86
2023/09/04 10:13:05;;;;;;;0.77;0.77;;;;;;;;;;4977623;28;20109;-87
2023/09/04 10:15:34;;;;;;;4.10;1.25;;;;;;;;;;4977821;28;20054;-87
2023/09/04 10:18:11;;;;;;;1.45;0.80;;;;;;;;;;4977713;28;20439;-89
2023/09/04 10:20:40;;;;;;;0.85;0.85;;;;;;;;;;4977999;28;20431;-88
2023/09/04 10:23:11;;;;;;;10.73;1.50;;;;;;;;;;4977882;28;20055;-87
2023/09/04 10:25:48;;;;;;;5.07;1.20;;;;;;;;;;4978043;28;20077;-88
2023/09/04 10:28:24;;;;;;;0.77;0.77;;;;;;;;;;4994561;28;20050;-86
2023/09/04 10:31:10;;;;;;;1.17;1.10;;;;;;;;;;4980223;28;20046;-90
2023/09/04 10:33:40;;;;;;;1.60;0.90;;;;;;;;;;4994665;28;20050;-87
2023/09/04 10:36:08;;;;;;;3.50;0.90;;;;;;;;;;4995154;28;20202;-91
2023/09/04 10:38:37;;;;;;;1.38;0.70;;;;;;;;;;4994679;28;20250;-87
2023/09/04 10:41:07;;;;;;;3.03;0.60;;;;;;;;;;4995883;28;20061;-87
2023/09/04 10:43:40;;;;;;;2.85;0.88;;;;;;;;;;4999022;28;20050;-88
2023/09/04 10:46:09;;;;;;;1.00;0.80;;;;;;;;;;4978845;28;20058;-86
2023/09/04 10:48:42;;;;;;;1.63;0.77;;;;;;;;;;4995201;28;20050;-92
2023/09/04 10:51:29;;;;;;;3.30;1.00;;;;;;;;;;4994123;28;20145;-86
2023/09/04 10:53:58;;;;;;;0.80;0.80;;;;;;;;;;4994732;28;20100;-89
2023/09/04 10:56:25;;;;;;;1.15;0.80;;;;;;;;;;4976185;28;20120;-88
2023/09/04 10:58:58;;;;;;;0.77;0.63;;;;;;;;;;4975959;28;20050;-87
2023/09/04 11:01:38;;;;;;;1.63;0.90;;;;;;;;;;4976827;28;20177;-86
2023/09/04 11:04:09;;;;;;;0.70;0.70;;;;;;;;;;4993294;28;20054;-87
2023/09/04 11:06:40;;;;;;;0.82;0.80;;;;;;;;;;4975835;28;20101;-87
2023/09/04 11:09:12;;;;;;;1.52;0.80;;;;;;;;;;4976522;28;20411;-86
2023/09/04 11:11:39;;;;;;;0.85;0.70;;;;;;;;;;4994331;28;20113;-88
2023/09/04 11:14:07;;;;;;;1.40;0.90;;;;;;;;;;4994202;28;20082;-87
2023/09/04 11:16:38;;;;;;;1.00;0.90;;;;;;;;;;4994094;28;20047;-87
2023/09/04 11:19:06;;;;;;;0.80;0.80;;;;;;;;;;4976932;28;20149;-87
2023/09/04 11:21:35;;;;;;;0.88;0.88;;;;;;;;;;4976797;28;20105;-87
2023/09/04 11:24:04;;;;;;;1.45;0.90;;;;;;;;;;4994209;28;20050;-88
2023/09/04 11:26:32;;;;;;;0.70;0.70;;;;;;;;;;4976759;28;20450;-88
2023/09/04 11:29:03;;;;;;;2.58;1.10;;;;;;;;;;4961337;28;20058;-87
2023/09/04 11:31:34;;;;;;;1.35;0.95;;;;;;;;;;4977277;28;20047;-89
2023/09/04 11:34:02;;;;;;;0.95;0.90;;;;;;;;;;4976974;28;20439;-88
2023/09/04 11:36:30;;;;;;;0.88;0.75;;;;;;;;;;4994218;28;20046;-89
2023/09/04 11:39:05;;;;;;;0.90;0.85;;;;;;;;;;4993778;28;20105;-87
2023/09/04 11:41:34;;;;;;;0.70;0.70;;;;;;;;;;4977305;28;20050;-86
2023/09/04 11:44:04;;;;;;;1.45;1.05;;;;;;;;;;4976488;28;20058;-86
2023/09/04 11:46:32;;;;;;;2.47;1.00;;;;;;;;;;4977033;28;20109;-89
2023/09/04 11:48:59;;;;;;;1.27;0.93;;;;;;;;;;4993806;28;20133;-89
2023/09/04 11:51:27;;;;;;;1.55;0.90;;;;;;;;;;4976867;28;20050;-88
2023/09/04 11:53:54;;;;;;;1.13;1.02;;;;;;;;;;4976600;28;20050;-88
2023/09/04 11:56:22;;;;;;;0.70;0.70;;;;;;;;;;4993948;28;20070;-88
2023/09/04 11:58:50;;;;;;;0.93;0.93;;;;;;;;;;4993677;28;20046;-88
2023/09/04 12:01:17;;;;;;;0.82;0.82;;;;;;;;;;4994220;28;20109;-88
2023/09/04 12:03:44;;;;;;;3.75;1.10;;;;;;;;;;4976768;28;20047;-86
2023/09/04 12:06:12;;;;;;;0.90;0.90;;;;;;;;;;4976051;28;20137;-89
2023/09/04 12:08:39;;;;;;;0.98;0.90;;;;;;;;;;4976592;28;20141;-90
2023/09/04 12:11:07;;;;;;;0.90;0.90;;;;;;;;;;4976389;28;20050;-86
2023/09/04 12:13:36;;;;;;;1.27;0.80;;;;;;;;;;4993217;28;20050;-87
2023/09/04 12:16:07;;;;;;;2.63;1.00;;;;;;;;;;4993723;28;20113;-88
2023/09/04 12:18:38;;;;;;;1.80;1.00;;;;;;;;;;4976543;28;20172;-88
2023/09/04 12:21:09;;;;;;;1.00;1.00;;;;;;;;;;4972826;28;20054;-89
2023/09/04 12:23:43;;;;;;;1.58;0.90;;;;;;;;;;4993743;28;20129;-92
2023/09/04 12:26:13;;;;;;;2.63;1.30;;;;;;;;;;4976418;28;20050;-91
2023/09/04 12:28:41;;;;;;;4.07;0.93;;;;;;;;;;4976489;28;20050;-87
2023/09/04 12:31:09;;;;;;;1.13;1.10;;;;;;;;;;4976314;28;20081;-89
2023/09/04 12:33:38;;;;;;;1.17;1.08;;;;;;;;;;4976707;28;20093;-88
2023/09/04 12:36:09;;;;;;;0.90;0.90;;;;;;;;;;4993549;28;20388;-87
2023/09/04 12:38:37;;;;;;;1.65;1.05;;;;;;;;;;4978500;28;20050;-88
2023/09/04 12:41:05;;;;;;;1.05;1.00;;;;;;;;;;4997156;28;20050;-88
2023/09/04 12:43:32;;;;;;;1.13;1.05;;;;;;;;;;4996914;28;20069;-87
2023/09/04 12:46:00;;;;;;;1.00;0.90;;;;;;;;;;4996409;28;20138;-88
2023/09/04 12:48:27;;;;;;;1.42;1.33;;;;;;;;;;4979016;28;20054;-90
2023/09/04 12:50:55;;;;;;;2.10;1.23;;;;;;;;;;4979646;28;20487;-88
2023/09/04 12:53:22;;;;;;;1.05;0.95;;;;;;;;;;4979552;28;20054;-88
2023/09/04 12:55:50;;;;;;;2.03;0.70;;;;;;;;;;4979482;28;20090;-89
2023/09/04 12:58:19;;;;;;;1.58;1.30;;;;;;;;;;4996629;28;20054;-88
2023/09/04 13:00:46;;;;;;;1.30;1.00;;;;;;;;;;4996470;28;20050;-87
2023/09/04 13:03:14;;;;;;;0.82;0.82;;;;;;;;;;4996087;28;20046;-88
2023/09/04 13:05:41;;;;;;;0.88;0.88;;;;;;;;;;4978898;28;20062;-89
2023/09/04 13:08:10;;;;;;;1.25;1.00;;;;;;;;;;4978360;28;20737;-92
2023/09/04 13:10:38;;;;;;;0.98;0.88;;;;;;;;;;4995751;28;20055;-88
2023/09/04 13:13:05;;;;;;;2.83;1.05;;;;;;;;;;4979386;28;20054;-88
2023/09/04 13:15:32;;;;;;;1.33;0.90;;;;;;;;;;4996401;28;20109;-89
2023/09/04 13:18:00;;;;;;;1.48;1.00;;;;;;;;;;4979347;28;20046;-88
2023/09/04 13:20:27;;;;;;;12.07;1.55;;;;;;;;;;4980082;28;20541;-89
2023/09/04 13:22:54;;;;;;;4.63;1.33;;;;;;;;;;4988224;28;20042;-87
2023/09/04 13:25:22;;;;;;;1.20;0.82;;;;;;;;;;5012216;28;20101;-88
2023/09/04 13:27:49;;;;;;;14.00;2.10;;;;;;;;;;4981451;28;20051;-87
2023/09/04 13:30:16;;;;;;;3.50;1.38;;;;;;;;;;4997368;28;20117;-87
2023/09/04 13:32:43;;;;;;;1.55;1.15;;;;;;;;;;4978824;28;20109;-87
2023/09/04 13:35:11;;;;;;;1.58;1.40;;;;;;;;;;4996043;28;20054;-86
2023/09/04 13:37:38;;;;;;;8.07;1.83;;;;;;;;;;4978894;28;20124;-88
2023/09/04 13:40:06;;;;;;;18.42;3.47;;;;;;;;;;4978612;28;20109;-88
2023/09/04 13:42:33;;;;;;;2.90;1.08;;;;;;;;;;4995793;28;20138;-87
2023/09/04 13:45:01;;;;;;;5.68;1.90;;;;;;;;;;4978534;28;20089;-90
2023/09/04 13:47:28;;;;;;;3.00;1.10;;;;;;;;;;4978942;28;20095;-87
2023/09/04 13:49:56;;;;;;;3.85;1.58;;;;;;;;;;4995448;28;20498;-88
2023/09/04 13:52:24;;;;;;;2.47;0.95;;;;;;;;;;4995920;28;20050;-88
2023/09/04 13:54:52;;;;;;;2.38;1.00;;;;;;;;;;4978784;28;20482;-89
2023/09/04 13:57:20;;;;;;;1.85;1.00;;;;;;;;;;4995638;28;20121;-87
2023/09/04 13:59:47;;;;;;;1.23;0.90;;;;;;;;;;4995548;28;20506;-88
2023/09/04 14:02:15;;;;;;;1.42;1.00;;;;;;;;;;4995560;28;20108;-88
2023/09/04 14:04:42;;;;;;;2.00;0.88;;;;;;;;;;4977986;28;20046;-89
2023/09/04 14:07:09;;;;;;;1.13;1.00;;;;;;;;;;4995273;28;20443;-89
2023/09/04 14:09:37;;;;;;;1.25;1.02;;;;;;;;;;4978485;28;20058;-89
2023/09/04 14:12:05;;;;;;;2.13;1.02;;;;;;;;;;4977690;28;20053;-87
2023/09/04 14:14:32;;;;;;;1.20;0.98;;;;;;;;;;4978143;28;20050;-90
2023/09/04 14:16:59;;;;;;;2.40;0.90;;;;;;;;;;4977771;28;20050;-88
2023/09/04 14:19:29;;;;;;;7.20;1.88;;;;;;;;;;4978536;28;20050;-89
2023/09/04 14:21:56;;;;;;;14.15;3.47;;;;;;;;;;4977850;28;20050;-87
2023/09/04 14:24:24;;;;;;;9.98;1.75;;;;;;;;;;4977869;28;20569;-89
2023/09/04 14:26:52;;;;;;;1.30;1.20;;;;;;;;;;4994811;28;20054;-89
2023/09/04 14:29:19;;;;;;;1.15;1.05;;;;;;;;;;4978119;28;20411;-87
2023/09/04 14:31:47;;;;;;;3.40;1.05;;;;;;;;;;4977527;28;20046;-88
2023/09/04 14:34:14;;;;;;;5.10;1.20;;;;;;;;;;4977655;28;20133;-89
2023/09/04 14:36:41;;;;;;;1.35;1.00;;;;;;;;;;4977585;28;20506;-89
2023/09/04 14:39:28;;;;;;;2.65;1.05;;;;;;;;;;4994609;28;20422;-88
2023/09/04 14:41:55;;;;;;;1.73;1.10;;;;;;;;;;4977570;28;20446;-91
2023/09/04 14:44:23;;;;;;;2.55;1.00;;;;;;;;;;4977677;28;20058;-87
2023/09/04 14:46:50;;;;;;;3.38;1.45;;;;;;;;;;4977380;28;20054;-85